createdAt,value
2018-06-29T00:01:15.708Z,4.07
2018-06-29T00:03:57.844Z,6.37
2018-06-29T00:06:26.590Z,5.17
2018-06-29T00:09:07.686Z,4.20
2018-06-29T00:11:52.457Z,4.60
2018-06-29T00:14:22.199Z,5.77
2018-06-29T00:16:52.957Z,4.73
2018-06-29T00:19:21.983Z,4.97
2018-06-29T00:21:52.584Z,5.63
2018-06-29T00:24:32.602Z,6.80
2018-06-29T00:27:13.598Z,5.10
2018-06-29T00:29:44.083Z,4.80
2018-06-29T00:32:12.851Z,6.00
2018-06-29T00:34:41.350Z,4.27
2018-06-29T00:37:11.141Z,4.60
2018-06-29T00:39:42.228Z,4.30
2018-06-29T00:42:14.986Z,4.67
2018-06-29T00:44:49.056Z,5.73
2018-06-29T00:47:27.701Z,5.57
2018-06-29T00:50:03.110Z,5.27
2018-06-29T00:52:39.821Z,7.27
2018-06-29T00:55:12.762Z,5.80
2018-06-29T00:57:53.320Z,6.23
2018-06-29T01:00:26.979Z,4.83
2018-06-29T01:02:56.623Z,4.97
2018-06-29T01:05:30.506Z,6.33
2018-06-29T01:07:59.740Z,6.87
2018-06-29T01:10:28.534Z,5.20
2018-06-29T01:12:58.126Z,8.37
2018-06-29T01:15:27.569Z,12.93
2018-06-29T01:17:57.345Z,7.63
2018-06-29T01:20:31.599Z,5.83
2018-06-29T01:23:00.297Z,6.13
2018-06-29T01:25:30.844Z,5.60
2018-06-29T01:28:01.606Z,6.13
2018-06-29T01:30:52.378Z,7.77
2018-06-29T01:33:30.576Z,8.10
2018-06-29T01:36:03.043Z,9.90
2018-06-29T01:38:33.006Z,7.70
2018-06-29T01:41:03.808Z,7.07
2018-06-29T01:43:37.975Z,6.60
2018-06-29T01:46:16.195Z,8.77
2018-06-29T01:49:01.396Z,7.53
2018-06-29T01:51:33.638Z,8.17
2018-06-29T01:54:02.143Z,7.13
2018-06-29T01:56:30.918Z,7.53
2018-06-29T01:58:59.670Z,8.17
2018-06-29T02:01:28.421Z,8.40
2018-06-29T02:03:57.859Z,7.83
2018-06-29T02:06:26.604Z,8.07
2018-06-29T02:08:55.370Z,6.70
2018-06-29T02:11:27.317Z,9.57
2018-06-29T02:13:56.999Z,9.83
2018-06-29T02:16:25.630Z,7.93
2018-06-29T02:18:55.297Z,8.20
2018-06-29T02:21:23.895Z,8.17
2018-06-29T02:23:54.529Z,8.70
2018-06-29T02:26:29.028Z,7.83
2018-06-29T02:29:02.018Z,7.63
2018-06-29T02:31:38.947Z,8.37
2018-06-29T02:34:08.401Z,6.90
2018-06-29T02:36:46.786Z,7.80
2018-06-29T02:39:17.314Z,8.53
2018-06-29T02:41:46.353Z,8.27
2018-06-29T02:44:17.118Z,7.70
2018-06-29T02:46:59.290Z,7.77
2018-06-29T02:49:29.848Z,13.60
2018-06-29T02:52:01.534Z,11.03
2018-06-29T02:54:39.908Z,7.53
2018-06-29T02:57:08.506Z,8.63
2018-06-29T02:59:39.104Z,10.07
2018-06-29T03:02:08.745Z,11.17
2018-06-29T03:04:49.312Z,10.30
2018-06-29T03:07:25.974Z,16.13
2018-06-29T03:09:56.557Z,8.63
2018-06-29T03:12:28.326Z,21.97
2018-06-29T03:15:14.735Z,9.57
2018-06-29T03:17:43.481Z,9.60
2018-06-29T03:20:18.866Z,9.33
2018-06-29T03:22:49.477Z,8.33
2018-06-29T03:25:17.671Z,8.77
2018-06-29T03:27:58.202Z,8.83
2018-06-29T03:30:37.882Z,10.30
2018-06-29T03:33:11.587Z,10.77
2018-06-29T03:35:44.533Z,8.33
2018-06-29T03:41:07.088Z,9.17
2018-06-29T03:43:35.839Z,8.17
2018-06-29T03:46:04.546Z,12.43
2018-06-29T03:48:33.202Z,8.10
2018-06-29T03:51:01.812Z,11.73
2018-06-29T03:53:31.479Z,9.00
2018-06-29T03:56:00.287Z,9.67
2018-06-29T04:01:26.997Z,8.13
2018-06-29T04:03:59.061Z,8.80
2018-06-29T04:06:31.180Z,13.07
2018-06-29T04:09:11.455Z,8.07
2018-06-29T04:11:41.275Z,8.87
2018-06-29T04:14:13.271Z,9.67
2018-06-29T04:16:41.967Z,9.23
2018-06-29T04:19:22.557Z,12.33
2018-06-29T04:21:58.679Z,9.67
2018-06-29T04:24:27.319Z,8.77
2018-06-29T04:26:57.863Z,12.30
2018-06-29T04:29:38.979Z,8.03
2018-06-29T04:32:15.112Z,12.30
2018-06-29T04:34:57.304Z,8.77
2018-06-29T04:37:39.832Z,9.67
2018-06-29T04:40:13.747Z,9.83
2018-06-29T04:42:47.976Z,10.20
2018-06-29T04:45:30.091Z,11.87
2018-06-29T04:48:03.805Z,11.70
2018-06-29T04:50:33.165Z,9.03
2018-06-29T04:56:06.325Z,9.87
2018-06-29T04:58:54.097Z,12.17
2018-06-29T05:04:17.109Z,12.53
2018-06-29T05:06:46.027Z,9.90
2018-06-29T05:09:16.439Z,10.00
2018-06-29T05:11:46.422Z,13.00
2018-06-29T05:14:16.141Z,11.03
2018-06-29T05:16:44.891Z,15.00
2018-06-29T05:19:13.439Z,12.93
2018-06-29T05:21:49.751Z,11.73
2018-06-29T05:24:20.341Z,12.53
2018-06-29T05:26:49.905Z,15.37
2018-06-29T05:29:23.511Z,14.03
2018-06-29T05:31:53.143Z,14.07
2018-06-29T05:34:28.375Z,13.00
2018-06-29T05:36:57.875Z,14.80
2018-06-29T05:39:31.609Z,12.80
2018-06-29T05:42:05.883Z,12.93
2018-06-29T05:44:40.006Z,12.73
2018-06-29T05:47:12.914Z,15.53
2018-06-29T05:49:44.665Z,17.67
2018-06-29T05:52:16.529Z,14.00
2018-06-29T05:54:47.323Z,13.43
2018-06-29T05:57:17.800Z,14.57
2018-06-29T05:59:58.421Z,15.40
2018-06-29T06:02:33.885Z,13.17
2018-06-29T06:05:22.580Z,15.07
2018-06-29T06:07:54.322Z,12.20
2018-06-29T06:10:26.066Z,12.87
2018-06-29T06:12:59.057Z,13.63
2018-06-29T06:15:28.669Z,12.43
2018-06-29T06:18:02.888Z,14.13
2018-06-29T06:20:32.549Z,12.77
2018-06-29T06:23:17.158Z,13.77
2018-06-29T06:25:49.566Z,15.73
2018-06-29T06:28:20.144Z,12.97
2018-06-29T06:30:52.438Z,12.20
2018-06-29T06:33:24.222Z,15.00
2018-06-29T06:36:04.243Z,11.00
2018-06-29T06:38:33.885Z,13.00
2018-06-29T06:41:08.120Z,11.33
2018-06-29T06:43:44.746Z,16.87
2018-06-29T06:46:15.350Z,10.83
2018-06-29T06:48:54.122Z,13.80
2018-06-29T06:51:24.782Z,12.40
2018-06-29T06:53:58.838Z,12.83
2018-06-29T06:56:46.315Z,13.80
2018-06-29T06:59:14.956Z,15.70
2018-06-29T07:01:43.620Z,10.23
2018-06-29T07:07:17.238Z,15.57
2018-06-29T07:12:38.604Z,11.23
2018-06-29T07:15:11.330Z,11.97
2018-06-29T07:17:40.993Z,9.93
2018-06-29T07:20:22.454Z,9.23
2018-06-29T07:22:55.168Z,9.70
2018-06-29T07:25:23.900Z,11.10
2018-06-29T07:27:52.510Z,13.67
2018-06-29T07:30:25.828Z,14.63
2018-06-29T07:32:54.498Z,10.40
2018-06-29T07:38:26.308Z,10.73
2018-06-29T07:44:07.292Z,12.23
2018-06-29T07:46:49.505Z,11.90
2018-06-29T07:49:37.228Z,12.73
2018-06-29T07:52:06.001Z,11.70
2018-06-29T07:54:38.351Z,12.00
2018-06-29T07:57:16.901Z,9.67
2018-06-29T07:59:46.394Z,11.00
2018-06-29T08:02:18.860Z,13.27
2018-06-29T08:04:47.489Z,9.77
2018-06-29T08:07:30.577Z,10.50
2018-06-29T08:13:04.831Z,8.87
2018-06-29T08:15:33.744Z,12.80
2018-06-29T08:18:06.820Z,13.60
2018-06-29T08:20:36.445Z,12.43
2018-06-29T08:23:12.140Z,13.70
2018-06-29T08:25:51.026Z,10.77
2018-06-29T08:28:25.510Z,10.23
2018-06-29T08:31:07.825Z,12.03
2018-06-29T08:33:37.189Z,11.77
2018-06-29T08:36:08.265Z,9.20
2018-06-29T08:38:37.576Z,12.43
2018-06-29T08:41:12.991Z,11.50
2018-06-29T08:43:43.522Z,14.50
2018-06-29T08:46:15.934Z,12.27
2018-06-29T08:49:02.673Z,10.60
2018-06-29T08:54:40.579Z,8.57
2018-06-29T08:57:20.921Z,14.13
2018-06-29T08:59:49.339Z,16.07
2018-06-29T09:02:19.860Z,13.97
2018-06-29T09:04:55.308Z,8.83
2018-06-29T09:07:31.944Z,7.83
2018-06-29T09:10:07.405Z,10.97
2018-06-29T09:12:35.837Z,10.03
2018-06-29T09:15:23.529Z,9.07
2018-06-29T09:18:03.599Z,9.40
2018-06-29T09:20:37.295Z,7.87
2018-06-29T09:23:06.745Z,9.13
2018-06-29T09:25:51.748Z,11.77
2018-06-29T09:28:39.530Z,13.63
2018-06-29T09:31:26.001Z,9.73
2018-06-29T09:34:11.591Z,8.30
2018-06-29T09:36:44.634Z,7.77
2018-06-29T09:39:13.977Z,23.70
2018-06-29T09:41:43.087Z,7.77
2018-06-29T09:44:12.450Z,7.70
2018-06-29T09:46:43.028Z,6.20
2018-06-29T09:52:24.626Z,8.57
2018-06-29T09:57:55.796Z,9.47
2018-06-29T10:00:36.777Z,11.73
2018-06-29T10:03:25.739Z,6.47
2018-06-29T10:06:00.553Z,6.07
2018-06-29T10:08:28.927Z,9.17
2018-06-29T10:11:01.083Z,7.47
2018-06-29T10:13:29.675Z,6.50
2018-06-29T10:15:58.058Z,8.60
2018-06-29T10:18:27.705Z,8.03
2018-06-29T10:21:01.642Z,6.17
2018-06-29T10:23:30.305Z,7.67
2018-06-29T10:26:00.833Z,7.23
2018-06-29T10:28:34.728Z,7.87
2018-06-29T10:31:03.370Z,10.93
2018-06-29T10:33:35.504Z,4.80
2018-06-29T10:36:04.628Z,6.70
2018-06-29T10:38:44.247Z,6.20
2018-06-29T10:41:20.027Z,6.67
2018-06-29T10:43:49.642Z,11.33
2018-06-29T10:46:18.265Z,7.33
2018-06-29T10:48:55.974Z,7.40
2018-06-29T10:51:24.545Z,4.20
2018-06-29T10:53:54.111Z,6.07
2018-06-29T10:56:24.760Z,4.50
2018-06-29T10:58:53.345Z,6.67
2018-06-29T11:01:21.750Z,4.80
2018-06-29T11:03:50.437Z,6.57
2018-06-29T11:06:18.999Z,6.70
2018-06-29T11:08:47.345Z,4.47
2018-06-29T11:11:16.080Z,4.00
2018-06-29T11:13:45.480Z,5.13
2018-06-29T11:16:13.873Z,9.03
2018-06-29T11:18:42.282Z,4.97
2018-06-29T11:21:10.975Z,5.63
2018-06-29T11:23:39.693Z,3.63
2018-06-29T11:26:21.512Z,5.57
2018-06-29T11:28:49.890Z,5.33
2018-06-29T11:31:24.128Z,6.57
2018-06-29T11:34:02.959Z,6.57
2018-06-29T11:36:36.302Z,4.87
2018-06-29T11:39:09.838Z,6.63
2018-06-29T11:41:52.718Z,7.17
2018-06-29T11:44:24.401Z,4.60
2018-06-29T11:46:58.665Z,5.03
2018-06-29T11:49:43.584Z,4.07
2018-06-29T11:52:26.422Z,5.10
2018-06-29T11:54:58.222Z,6.83
2018-06-29T11:57:32.136Z,6.47
2018-06-29T12:00:01.706Z,5.10
2018-06-29T12:02:30.369Z,5.50
2018-06-29T12:05:15.064Z,6.47
2018-06-29T12:07:49.415Z,5.03
2018-06-29T12:10:18.906Z,4.67
2018-06-29T12:13:06.022Z,3.97
2018-06-29T12:15:36.558Z,5.20
2018-06-29T12:18:06.198Z,4.87
2018-06-29T12:20:37.505Z,5.07
2018-06-29T12:23:06.924Z,4.27
2018-06-29T12:25:47.869Z,5.77
2018-06-29T12:28:16.242Z,5.60
2018-06-29T12:30:44.622Z,5.70
2018-06-29T12:33:18.569Z,4.70
2018-06-29T12:35:59.225Z,6.70
2018-06-29T12:38:41.095Z,5.10
2018-06-29T12:41:09.505Z,4.67
2018-06-29T12:43:39.134Z,4.13
2018-06-29T12:46:22.530Z,5.17
2018-06-29T12:48:57.647Z,4.97
2018-06-29T12:54:24.512Z,7.60
2018-06-29T12:57:00.612Z,6.47
2018-06-29T12:59:48.988Z,6.07
2018-06-29T13:02:40.360Z,6.87
2018-06-29T13:05:14.375Z,5.47
2018-06-29T13:07:44.050Z,6.53
2018-06-29T13:10:13.503Z,8.37
2018-06-29T13:12:47.069Z,8.60
2018-06-29T13:15:28.978Z,7.30
2018-06-29T13:18:07.195Z,7.70
2018-06-29T13:20:35.737Z,4.97
2018-06-29T13:23:04.287Z,6.53
2018-06-29T13:25:33.357Z,5.60
2018-06-29T13:28:03.008Z,6.77
2018-06-29T13:30:32.546Z,5.37
2018-06-29T13:33:01.148Z,4.83
2018-06-29T13:38:30.471Z,6.80
2018-06-29T13:41:00.157Z,5.33
2018-06-29T13:43:30.879Z,7.70
2018-06-29T13:46:02.755Z,4.73
2018-06-29T13:48:32.318Z,5.00
2018-06-29T13:51:13.254Z,7.47
2018-06-29T13:53:42.970Z,12.00
2018-06-29T13:56:11.553Z,5.17
2018-06-29T13:58:45.878Z,5.70
2018-06-29T14:01:15.440Z,4.80
2018-06-29T14:03:54.546Z,5.20
2018-06-29T14:06:28.616Z,6.73
2018-06-29T14:08:58.097Z,7.20
2018-06-29T14:11:29.731Z,8.33
2018-06-29T14:14:10.207Z,5.73
2018-06-29T14:16:38.972Z,9.70
2018-06-29T14:19:09.381Z,8.47
2018-06-29T14:21:55.115Z,6.67
2018-06-29T14:24:23.711Z,5.27
2018-06-29T14:27:15.444Z,7.73
2018-06-29T14:29:47.507Z,6.37
2018-06-29T14:32:17.137Z,5.03
2018-06-29T14:35:06.352Z,6.10
2018-06-29T14:37:36.023Z,7.77
2018-06-29T14:40:05.615Z,8.27
2018-06-29T14:42:56.971Z,6.07
2018-06-29T14:45:28.764Z,5.40
2018-06-29T14:48:07.884Z,5.60
2018-06-29T14:50:44.573Z,6.13
2018-06-29T14:53:15.107Z,7.87
2018-06-29T14:55:54.203Z,6.47
2018-06-29T14:58:42.553Z,4.60
2018-06-29T15:01:10.950Z,11.27
2018-06-29T15:03:57.749Z,7.37
2018-06-29T15:06:30.721Z,6.43
2018-06-29T15:08:59.165Z,5.33
2018-06-29T15:11:33.946Z,4.50
2018-06-29T15:14:05.530Z,4.13
2018-06-29T15:16:37.247Z,4.03
2018-06-29T15:19:05.960Z,3.63
2018-06-29T15:21:48.638Z,5.30
2018-06-29T15:24:39.801Z,5.83
2018-06-29T15:27:13.455Z,4.10
2018-06-29T15:29:48.549Z,4.80
2018-06-29T15:32:19.135Z,5.83
2018-06-29T15:34:51.301Z,3.70
2018-06-29T15:37:23.433Z,5.00
2018-06-29T15:39:59.725Z,8.03
2018-06-29T15:42:30.831Z,4.77
2018-06-29T15:45:00.344Z,6.73
2018-06-29T15:47:30.868Z,5.73
2018-06-29T15:49:59.521Z,8.37
2018-06-29T15:52:31.917Z,6.10
2018-06-29T15:55:01.743Z,7.57
2018-06-29T15:57:33.551Z,5.03
2018-06-29T16:00:09.259Z,5.47
2018-06-29T16:02:44.763Z,4.57
2018-06-29T16:05:13.138Z,9.50
2018-06-29T16:07:46.473Z,5.90
2018-06-29T16:10:15.247Z,5.33
2018-06-29T16:12:43.906Z,5.60
2018-06-29T16:15:22.239Z,4.43
2018-06-29T16:17:55.319Z,8.50
2018-06-29T16:20:23.731Z,8.03
2018-06-29T16:22:53.433Z,5.43
2018-06-29T16:25:25.999Z,8.43
2018-06-29T16:28:08.497Z,9.03
2018-06-29T16:30:39.071Z,5.80
2018-06-29T16:33:07.749Z,5.13
2018-06-29T16:35:36.435Z,4.70
2018-06-29T16:38:10.828Z,4.50
2018-06-29T16:40:42.721Z,6.73
2018-06-29T16:43:13.305Z,6.37
2018-06-29T16:45:42.409Z,7.63
2018-06-29T16:48:10.882Z,7.87
2018-06-29T16:50:39.446Z,9.07
2018-06-29T16:53:08.139Z,5.33
2018-06-29T16:55:37.667Z,5.30
2018-06-29T16:58:07.374Z,8.67
2018-06-29T17:00:43.939Z,6.67
2018-06-29T17:03:18.707Z,5.03
2018-06-29T17:05:47.507Z,9.23
2018-06-29T17:08:21.895Z,8.73
2018-06-29T17:10:58.681Z,8.27
2018-06-29T17:13:29.295Z,7.23
2018-06-29T17:16:01.044Z,7.63
2018-06-29T17:18:49.670Z,7.33
2018-06-29T17:21:22.611Z,11.80
2018-06-29T17:23:55.353Z,7.10
2018-06-29T17:26:24.949Z,6.17
2018-06-29T17:28:54.584Z,7.50
2018-06-29T17:31:35.773Z,9.40
2018-06-29T17:34:06.806Z,10.77
2018-06-29T17:36:54.107Z,8.10
2018-06-29T17:39:25.881Z,11.43
2018-06-29T17:41:54.501Z,8.17
2018-06-29T17:44:33.681Z,8.90
2018-06-29T17:47:04.210Z,10.80
2018-06-29T17:49:33.780Z,12.87
2018-06-29T17:52:09.767Z,8.57
2018-06-29T17:54:45.252Z,10.83
2018-06-29T17:57:15.689Z,10.83
2018-06-29T17:59:47.882Z,12.07
2018-06-29T18:02:26.134Z,11.80
2018-06-29T18:05:01.853Z,12.33
2018-06-29T18:07:46.114Z,12.40
2018-06-29T18:10:21.084Z,11.13
2018-06-29T18:12:51.649Z,10.40
2018-06-29T18:15:20.287Z,12.17
2018-06-29T18:17:49.200Z,11.27
2018-06-29T18:20:17.897Z,8.77
2018-06-29T18:22:51.825Z,8.23
2018-06-29T18:25:20.539Z,9.37
2018-06-29T18:27:56.633Z,10.13
2018-06-29T18:30:26.297Z,9.17
2018-06-29T18:32:57.457Z,13.30
2018-06-29T18:35:28.259Z,10.20
2018-06-29T18:38:04.914Z,10.03
2018-06-29T18:40:37.735Z,9.27
2018-06-29T18:43:07.575Z,8.53
2018-06-29T18:45:50.529Z,10.30
2018-06-29T18:48:19.379Z,12.40
2018-06-29T18:50:55.380Z,8.50
2018-06-29T18:53:24.861Z,8.73
2018-06-29T18:55:59.445Z,7.70
2018-06-29T18:58:31.508Z,6.83
2018-06-29T19:01:02.168Z,6.77
2018-06-29T19:03:31.664Z,6.93
2018-06-29T19:06:02.153Z,8.30
2018-06-29T19:08:31.765Z,8.57
2018-06-29T19:11:00.765Z,8.47
2018-06-29T19:13:30.161Z,10.03
2018-06-29T19:16:09.545Z,8.73
2018-06-29T19:18:40.019Z,8.93
2018-06-29T19:21:13.611Z,4.60
2018-06-29T19:23:45.076Z,5.43
2018-06-29T19:26:13.976Z,7.73
2018-06-29T19:28:47.713Z,5.37
2018-06-29T19:31:19.927Z,6.37
2018-06-29T19:33:48.470Z,7.60
2018-06-29T19:36:18.191Z,6.93
2018-06-29T19:38:47.396Z,8.33
2018-06-29T19:41:17.626Z,9.13
2018-06-29T19:43:47.544Z,8.57
2018-06-29T19:46:18.556Z,9.70
2018-06-29T19:51:40.295Z,9.13
2018-06-29T19:54:10.038Z,6.63
2018-06-29T19:56:41.957Z,5.70
2018-06-29T19:59:21.095Z,7.47
2018-06-29T20:02:06.564Z,11.40
2018-06-29T20:04:45.954Z,8.07
2018-06-29T20:07:28.581Z,9.20
2018-06-29T20:10:05.029Z,6.73
2018-06-29T20:12:40.192Z,11.43
2018-06-29T20:15:10.712Z,7.00
2018-06-29T20:17:45.471Z,8.83
2018-06-29T20:20:15.120Z,7.93
2018-06-29T20:23:01.869Z,10.80
2018-06-29T20:25:31.533Z,7.33
2018-06-29T20:28:10.340Z,7.87
2018-06-29T20:30:40.313Z,11.53
2018-06-29T20:33:08.994Z,10.60
2018-06-29T20:35:38.592Z,11.93
2018-06-29T20:38:07.287Z,11.33
2018-06-29T20:40:37.925Z,12.53
2018-06-29T20:43:10.523Z,11.03
2018-06-29T20:45:42.544Z,9.47
2018-06-29T20:48:16.590Z,8.60
2018-06-29T20:50:51.589Z,11.67
2018-06-29T20:53:20.387Z,10.83
2018-06-29T20:55:51.227Z,13.33
2018-06-29T20:58:24.375Z,11.80
2018-06-29T21:00:53.243Z,13.10
2018-06-29T21:03:24.081Z,13.93
2018-06-29T21:05:52.702Z,10.37
2018-06-29T21:08:27.274Z,12.47
2018-06-29T21:10:55.811Z,12.33
2018-06-29T21:13:32.471Z,12.17
2018-06-29T21:16:04.597Z,11.90
2018-06-29T21:18:43.226Z,18.20
2018-06-29T21:21:22.350Z,11.90
2018-06-29T21:23:53.012Z,13.23
2018-06-29T21:26:38.978Z,15.07
2018-06-29T21:29:08.484Z,14.13
2018-06-29T21:31:39.114Z,15.77
2018-06-29T21:34:08.945Z,15.87
2018-06-29T21:36:39.580Z,14.83
2018-06-29T21:39:10.920Z,15.63
2018-06-29T21:41:49.150Z,14.70
2018-06-29T21:44:19.753Z,20.87
2018-06-29T21:47:05.535Z,13.63
2018-06-29T21:49:35.769Z,19.07
2018-06-29T21:52:07.148Z,18.33
2018-06-29T21:54:35.652Z,17.17
2018-06-29T21:57:11.398Z,14.80
2018-06-29T22:02:33.379Z,13.63
2018-06-29T22:05:04.490Z,14.07
2018-06-29T22:07:40.660Z,15.37
2018-06-29T22:10:11.075Z,19.40
2018-06-29T22:12:39.937Z,17.77
2018-06-29T22:15:21.391Z,18.47
2018-06-29T22:17:52.306Z,20.47
2018-06-29T22:20:25.364Z,16.10
2018-06-29T22:22:54.959Z,14.20
2018-06-29T22:25:23.572Z,18.57
2018-06-29T22:27:54.133Z,21.47
2018-06-29T22:30:22.668Z,20.33
2018-06-29T22:32:57.232Z,15.13
2018-06-29T22:35:43.391Z,20.63
2018-06-29T22:41:16.405Z,20.00
2018-06-29T22:43:57.361Z,14.53
2018-06-29T22:46:35.583Z,22.57
2018-06-29T22:49:04.029Z,15.30
2018-06-29T22:51:55.097Z,19.03
2018-06-29T22:54:25.689Z,18.63
2018-06-29T22:56:57.715Z,16.43
2018-06-29T22:59:28.240Z,22.10
2018-06-29T23:02:00.267Z,19.93
2018-06-29T23:04:30.938Z,20.07
2018-06-29T23:07:00.452Z,18.60
2018-06-29T23:09:30.005Z,18.23
2018-06-29T23:11:58.435Z,16.77
2018-06-29T23:14:28.083Z,22.90
2018-06-29T23:16:56.759Z,21.47
2018-06-29T23:19:25.343Z,20.17
2018-06-29T23:21:55.037Z,24.27
2018-06-29T23:24:24.120Z,20.23
2018-06-29T23:26:56.482Z,20.90
2018-06-29T23:29:26.955Z,21.03
2018-06-29T23:31:57.149Z,16.70
2018-06-29T23:34:27.663Z,18.73
2018-06-29T23:36:56.351Z,21.43
2018-06-29T23:39:25.055Z,17.30
2018-06-29T23:41:54.630Z,18.63
2018-06-29T23:44:22.986Z,22.70
2018-06-29T23:46:51.408Z,17.80
2018-06-29T23:49:29.886Z,24.20
2018-06-29T23:52:00.487Z,22.90
2018-06-29T23:54:29.155Z,23.10
2018-06-29T23:56:58.719Z,19.83
2018-06-29T23:59:28.366Z,20.60
